sensor_id;sensor_type;location;lat;lon;timestamp;P1;durP1;ratioP1;P2;durP2;ratioP2
20441;SDS011;10380;52.102;20.614;2022-09-27T00:01:28;18.00;;;16.07;;
20441;SDS011;10380;52.102;20.614;2022-09-27T00:03:56;20.77;;;16.47;;
20441;SDS011;10380;52.102;20.614;2022-09-27T00:06:27;20.60;;;16.13;;
20441;SDS011;10380;52.102;20.614;2022-09-27T00:08:57;20.90;;;15.63;;
20441;SDS011;10380;52.102;20.614;2022-09-27T00:11:29;18.43;;;14.97;;
20441;SDS011;10380;52.102;20.614;2022-09-27T00:14:01;19.70;;;15.20;;
20441;SDS011;10380;52.102;20.614;2022-09-27T00:16:30;17.17;;;14.23;;
20441;SDS011;10380;52.102;20.614;2022-09-27T00:19:03;18.27;;;13.90;;
20441;SDS011;10380;52.102;20.614;2022-09-27T00:21:32;16.33;;;14.57;;
20441;SDS011;10380;52.102;20.614;2022-09-27T00:23:59;16.03;;;14.30;;
20441;SDS011;10380;52.102;20.614;2022-09-27T00:26:26;17.67;;;14.47;;
20441;SDS011;10380;52.102;20.614;2022-09-27T00:28:54;17.10;;;14.17;;
20441;SDS011;10380;52.102;20.614;2022-09-27T00:33:55;16.87;;;15.17;;
20441;SDS011;10380;52.102;20.614;2022-09-27T00:36:25;21.17;;;13.97;;
20441;SDS011;10380;52.102;20.614;2022-09-27T00:38:53;18.80;;;14.67;;
20441;SDS011;10380;52.102;20.614;2022-09-27T00:41:25;17.77;;;14.40;;
20441;SDS011;10380;52.102;20.614;2022-09-27T00:46:55;16.13;;;14.07;;
20441;SDS011;10380;52.102;20.614;2022-09-27T00:49:30;15.10;;;13.27;;
20441;SDS011;10380;52.102;20.614;2022-09-27T00:52:03;16.90;;;13.70;;
20441;SDS011;10380;52.102;20.614;2022-09-27T00:54:35;18.60;;;15.23;;
20441;SDS011;10380;52.102;20.614;2022-09-27T00:57:06;20.33;;;15.00;;
20441;SDS011;10380;52.102;20.614;2022-09-27T00:59:34;15.90;;;14.20;;
20441;SDS011;10380;52.102;20.614;2022-09-27T01:02:04;16.63;;;14.40;;
20441;SDS011;10380;52.102;20.614;2022-09-27T01:04:33;18.77;;;16.50;;
20441;SDS011;10380;52.102;20.614;2022-09-27T01:07:03;17.40;;;14.00;;
20441;SDS011;10380;52.102;20.614;2022-09-27T01:09:31;17.87;;;14.87;;
20441;SDS011;10380;52.102;20.614;2022-09-27T01:17:38;18.10;;;14.13;;
20441;SDS011;10380;52.102;20.614;2022-09-27T01:26:15;19.80;;;15.93;;
20441;SDS011;10380;52.102;20.614;2022-09-27T01:29:03;35.17;;;16.63;;
20441;SDS011;10380;52.102;20.614;2022-09-27T01:31:49;28.87;;;15.17;;
20441;SDS011;10380;52.102;20.614;2022-09-27T01:37:27;36.67;;;15.43;;
20441;SDS011;10380;52.102;20.614;2022-09-27T01:40:10;30.73;;;15.27;;
20441;SDS011;10380;52.102;20.614;2022-09-27T01:42:54;54.23;;;16.10;;
20441;SDS011;10380;52.102;20.614;2022-09-27T01:45:45;45.03;;;15.23;;
20441;SDS011;10380;52.102;20.614;2022-09-27T01:48:21;95.20;;;19.80;;
20441;SDS011;10380;52.102;20.614;2022-09-27T01:51:01;26.10;;;15.60;;
20441;SDS011;10380;52.102;20.614;2022-09-27T01:53:40;36.70;;;14.93;;
20441;SDS011;10380;52.102;20.614;2022-09-27T01:56:12;68.30;;;16.73;;
20441;SDS011;10380;52.102;20.614;2022-09-27T01:58:53;63.63;;;14.93;;
20441;SDS011;10380;52.102;20.614;2022-09-27T02:01:26;62.33;;;16.47;;
20441;SDS011;10380;52.102;20.614;2022-09-27T02:03:55;38.17;;;15.30;;
20441;SDS011;10380;52.102;20.614;2022-09-27T02:06:27;51.53;;;14.73;;
20441;SDS011;10380;52.102;20.614;2022-09-27T02:09:05;42.47;;;15.40;;
20441;SDS011;10380;52.102;20.614;2022-09-27T02:11:37;114.27;;;18.90;;
20441;SDS011;10380;52.102;20.614;2022-09-27T02:14:15;77.20;;;18.00;;
20441;SDS011;10380;52.102;20.614;2022-09-27T02:16:53;54.90;;;16.53;;
20441;SDS011;10380;52.102;20.614;2022-09-27T02:30:43;52.63;;;18.23;;
20441;SDS011;10380;52.102;20.614;2022-09-27T02:33:10;64.60;;;18.53;;
20441;SDS011;10380;52.102;20.614;2022-09-27T02:35:38;27.33;;;15.90;;
20441;SDS011;10380;52.102;20.614;2022-09-27T02:38:05;26.27;;;16.33;;
20441;SDS011;10380;52.102;20.614;2022-09-27T02:40:34;36.87;;;16.93;;
20441;SDS011;10380;52.102;20.614;2022-09-27T02:43:09;33.50;;;17.33;;
20441;SDS011;10380;52.102;20.614;2022-09-27T02:45:51;40.03;;;17.70;;
20441;SDS011;10380;52.102;20.614;2022-09-27T02:51:42;77.73;;;18.83;;
20441;SDS011;10380;52.102;20.614;2022-09-27T02:54:39;35.73;;;17.83;;
20441;SDS011;10380;52.102;20.614;2022-09-27T02:59:58;30.43;;;17.23;;
20441;SDS011;10380;52.102;20.614;2022-09-27T03:02:42;33.77;;;16.63;;
20441;SDS011;10380;52.102;20.614;2022-09-27T03:05:16;43.33;;;18.30;;
20441;SDS011;10380;52.102;20.614;2022-09-27T03:07:50;83.43;;;19.53;;
20441;SDS011;10380;52.102;20.614;2022-09-27T03:10:18;52.60;;;18.47;;
20441;SDS011;10380;52.102;20.614;2022-09-27T03:12:50;50.60;;;17.20;;
20441;SDS011;10380;52.102;20.614;2022-09-27T03:15:17;30.60;;;17.63;;
20441;SDS011;10380;52.102;20.614;2022-09-27T03:17:44;40.20;;;18.97;;
20441;SDS011;10380;52.102;20.614;2022-09-27T03:20:12;82.27;;;21.73;;
20441;SDS011;10380;52.102;20.614;2022-09-27T03:22:38;54.90;;;20.17;;
20441;SDS011;10380;52.102;20.614;2022-09-27T03:25:06;102.07;;;23.13;;
20441;SDS011;10380;52.102;20.614;2022-09-27T03:27:34;75.07;;;21.93;;
20441;SDS011;10380;52.102;20.614;2022-09-27T03:30:01;54.43;;;18.53;;
20441;SDS011;10380;52.102;20.614;2022-09-27T03:32:28;55.53;;;18.43;;
20441;SDS011;10380;52.102;20.614;2022-09-27T03:34:56;30.50;;;18.27;;
20441;SDS011;10380;52.102;20.614;2022-09-27T03:37:23;62.43;;;19.07;;
20441;SDS011;10380;52.102;20.614;2022-09-27T03:39:52;76.73;;;21.60;;
20441;SDS011;10380;52.102;20.614;2022-09-27T03:42:18;109.37;;;22.87;;
20441;SDS011;10380;52.102;20.614;2022-09-27T03:44:45;67.73;;;21.37;;
20441;SDS011;10380;52.102;20.614;2022-09-27T03:47:13;35.63;;;17.93;;
20441;SDS011;10380;52.102;20.614;2022-09-27T03:49:40;36.90;;;18.87;;
20441;SDS011;10380;52.102;20.614;2022-09-27T03:52:07;37.20;;;18.30;;
20441;SDS011;10380;52.102;20.614;2022-09-27T03:54:34;51.93;;;18.63;;
20441;SDS011;10380;52.102;20.614;2022-09-27T03:57:01;56.73;;;19.47;;
20441;SDS011;10380;52.102;20.614;2022-09-27T03:59:27;37.20;;;18.97;;
20441;SDS011;10380;52.102;20.614;2022-09-27T04:01:54;90.10;;;20.63;;
20441;SDS011;10380;52.102;20.614;2022-09-27T04:04:21;39.27;;;16.17;;
20441;SDS011;10380;52.102;20.614;2022-09-27T04:06:49;42.47;;;17.87;;
20441;SDS011;10380;52.102;20.614;2022-09-27T04:09:16;38.23;;;17.00;;
20441;SDS011;10380;52.102;20.614;2022-09-27T04:11:43;29.23;;;17.03;;
20441;SDS011;10380;52.102;20.614;2022-09-27T04:14:09;40.97;;;17.63;;
20441;SDS011;10380;52.102;20.614;2022-09-27T04:16:38;38.00;;;17.50;;
20441;SDS011;10380;52.102;20.614;2022-09-27T04:19:06;41.03;;;18.27;;
20441;SDS011;10380;52.102;20.614;2022-09-27T04:21:34;34.57;;;17.70;;
20441;SDS011;10380;52.102;20.614;2022-09-27T04:24:01;25.50;;;15.43;;
20441;SDS011;10380;52.102;20.614;2022-09-27T04:26:28;31.77;;;17.27;;
20441;SDS011;10380;52.102;20.614;2022-09-27T04:28:55;87.30;;;17.40;;
20441;SDS011;10380;52.102;20.614;2022-09-27T04:31:22;102.23;;;18.83;;
20441;SDS011;10380;52.102;20.614;2022-09-27T04:33:49;75.23;;;15.87;;
20441;SDS011;10380;52.102;20.614;2022-09-27T04:36:19;51.20;;;15.97;;
20441;SDS011;10380;52.102;20.614;2022-09-27T04:38:54;82.57;;;17.60;;
20441;SDS011;10380;52.102;20.614;2022-09-27T04:41:26;63.27;;;16.50;;
20441;SDS011;10380;52.102;20.614;2022-09-27T04:43:54;47.83;;;17.00;;
20441;SDS011;10380;52.102;20.614;2022-09-27T04:46:24;24.90;;;14.93;;
20441;SDS011;10380;52.102;20.614;2022-09-27T04:48:57;34.87;;;15.93;;
20441;SDS011;10380;52.102;20.614;2022-09-27T04:51:25;38.87;;;16.27;;
20441;SDS011;10380;52.102;20.614;2022-09-27T04:53:52;46.90;;;16.63;;
20441;SDS011;10380;52.102;20.614;2022-09-27T04:56:21;33.03;;;16.80;;
20441;SDS011;10380;52.102;20.614;2022-09-27T04:58:47;30.53;;;13.93;;
20441;SDS011;10380;52.102;20.614;2022-09-27T05:01:14;31.37;;;15.17;;
20441;SDS011;10380;52.102;20.614;2022-09-27T05:03:41;106.90;;;17.67;;
20441;SDS011;10380;52.102;20.614;2022-09-27T05:06:08;38.33;;;13.93;;
20441;SDS011;10380;52.102;20.614;2022-09-27T05:08:35;36.23;;;15.70;;
20441;SDS011;10380;52.102;20.614;2022-09-27T05:11:02;35.60;;;14.90;;
20441;SDS011;10380;52.102;20.614;2022-09-27T05:13:30;40.17;;;14.17;;
20441;SDS011;10380;52.102;20.614;2022-09-27T05:16:00;20.30;;;10.60;;
20441;SDS011;10380;52.102;20.614;2022-09-27T05:18:30;32.23;;;12.27;;
20441;SDS011;10380;52.102;20.614;2022-09-27T05:20:57;24.87;;;11.00;;
20441;SDS011;10380;52.102;20.614;2022-09-27T05:23:24;19.33;;;13.13;;
20441;SDS011;10380;52.102;20.614;2022-09-27T05:25:52;25.03;;;11.67;;
20441;SDS011;10380;52.102;20.614;2022-09-27T05:28:21;15.37;;;10.40;;
20441;SDS011;10380;52.102;20.614;2022-09-27T05:30:49;19.87;;;11.17;;
20441;SDS011;10380;52.102;20.614;2022-09-27T05:33:16;15.80;;;11.17;;
20441;SDS011;10380;52.102;20.614;2022-09-27T05:35:49;27.20;;;10.63;;
20441;SDS011;10380;52.102;20.614;2022-09-27T05:38:17;21.80;;;9.97;;
20441;SDS011;10380;52.102;20.614;2022-09-27T05:40:45;15.50;;;10.77;;
20441;SDS011;10380;52.102;20.614;2022-09-27T05:43:13;14.37;;;9.60;;
20441;SDS011;10380;52.102;20.614;2022-09-27T05:45:41;17.57;;;10.33;;
20441;SDS011;10380;52.102;20.614;2022-09-27T05:48:10;21.50;;;9.70;;
20441;SDS011;10380;52.102;20.614;2022-09-27T05:50:39;19.67;;;9.53;;
20441;SDS011;10380;52.102;20.614;2022-09-27T05:53:06;15.23;;;10.70;;
20441;SDS011;10380;52.102;20.614;2022-09-27T05:55:34;15.73;;;10.17;;
20441;SDS011;10380;52.102;20.614;2022-09-27T05:58:02;13.60;;;10.30;;
20441;SDS011;10380;52.102;20.614;2022-09-27T06:00:30;15.17;;;9.73;;
20441;SDS011;10380;52.102;20.614;2022-09-27T06:03:02;12.30;;;8.37;;
20441;SDS011;10380;52.102;20.614;2022-09-27T06:05:33;17.73;;;9.63;;
20441;SDS011;10380;52.102;20.614;2022-09-27T06:08:03;16.13;;;10.87;;
20441;SDS011;10380;52.102;20.614;2022-09-27T06:10:36;15.57;;;9.43;;
20441;SDS011;10380;52.102;20.614;2022-09-27T06:13:05;11.17;;;9.27;;
20441;SDS011;10380;52.102;20.614;2022-09-27T06:15:34;15.83;;;9.83;;
20441;SDS011;10380;52.102;20.614;2022-09-27T06:18:06;18.57;;;10.50;;
20441;SDS011;10380;52.102;20.614;2022-09-27T06:20:37;17.73;;;10.27;;
20441;SDS011;10380;52.102;20.614;2022-09-27T06:23:06;18.03;;;10.47;;
20441;SDS011;10380;52.102;20.614;2022-09-27T06:25:35;21.17;;;11.67;;
20441;SDS011;10380;52.102;20.614;2022-09-27T06:28:03;14.83;;;10.53;;
20441;SDS011;10380;52.102;20.614;2022-09-27T06:30:30;18.17;;;11.30;;
20441;SDS011;10380;52.102;20.614;2022-09-27T06:33:01;19.50;;;10.67;;
20441;SDS011;10380;52.102;20.614;2022-09-27T06:35:28;21.83;;;10.77;;
20441;SDS011;10380;52.102;20.614;2022-09-27T06:37:56;16.73;;;10.70;;
20441;SDS011;10380;52.102;20.614;2022-09-27T06:40:23;17.90;;;12.60;;
20441;SDS011;10380;52.102;20.614;2022-09-27T06:42:51;18.37;;;12.97;;
20441;SDS011;10380;52.102;20.614;2022-09-27T06:45:18;20.57;;;13.30;;
20441;SDS011;10380;52.102;20.614;2022-09-27T06:47:45;18.43;;;13.07;;
20441;SDS011;10380;52.102;20.614;2022-09-27T06:50:12;21.77;;;13.43;;
20441;SDS011;10380;52.102;20.614;2022-09-27T06:52:45;18.00;;;12.03;;
20441;SDS011;10380;52.102;20.614;2022-09-27T06:55:14;22.37;;;13.73;;
20441;SDS011;10380;52.102;20.614;2022-09-27T06:57:41;22.77;;;14.50;;
20441;SDS011;10380;52.102;20.614;2022-09-27T07:00:27;19.60;;;12.87;;
20441;SDS011;10380;52.102;20.614;2022-09-27T07:02:56;20.87;;;13.50;;
20441;SDS011;10380;52.102;20.614;2022-09-27T07:05:29;19.27;;;13.83;;
20441;SDS011;10380;52.102;20.614;2022-09-27T07:07:57;23.33;;;13.90;;
20441;SDS011;10380;52.102;20.614;2022-09-27T07:10:25;24.27;;;16.17;;
20441;SDS011;10380;52.102;20.614;2022-09-27T07:12:54;26.57;;;15.57;;
20441;SDS011;10380;52.102;20.614;2022-09-27T07:15:23;26.27;;;14.87;;
20441;SDS011;10380;52.102;20.614;2022-09-27T07:17:56;27.23;;;15.77;;
20441;SDS011;10380;52.102;20.614;2022-09-27T07:20:24;23.17;;;15.97;;
20441;SDS011;10380;52.102;20.614;2022-09-27T07:22:52;22.23;;;15.30;;
20441;SDS011;10380;52.102;20.614;2022-09-27T07:25:18;23.13;;;15.13;;
20441;SDS011;10380;52.102;20.614;2022-09-27T07:27:45;26.93;;;15.80;;
20441;SDS011;10380;52.102;20.614;2022-09-27T07:30:12;23.23;;;14.47;;
20441;SDS011;10380;52.102;20.614;2022-09-27T07:32:39;23.40;;;16.20;;
20441;SDS011;10380;52.102;20.614;2022-09-27T07:35:07;27.20;;;16.73;;
20441;SDS011;10380;52.102;20.614;2022-09-27T07:37:36;27.07;;;17.27;;
20441;SDS011;10380;52.102;20.614;2022-09-27T07:40:04;27.03;;;17.80;;
20441;SDS011;10380;52.102;20.614;2022-09-27T07:42:37;29.20;;;18.70;;
20441;SDS011;10380;52.102;20.614;2022-09-27T07:45:04;29.83;;;19.43;;
20441;SDS011;10380;52.102;20.614;2022-09-27T07:47:34;27.37;;;17.00;;
20441;SDS011;10380;52.102;20.614;2022-09-27T07:50:03;27.27;;;18.30;;
20441;SDS011;10380;52.102;20.614;2022-09-27T07:52:38;28.33;;;18.70;;
20441;SDS011;10380;52.102;20.614;2022-09-27T07:55:07;31.47;;;20.50;;
20441;SDS011;10380;52.102;20.614;2022-09-27T07:57:36;31.13;;;21.10;;
20441;SDS011;10380;52.102;20.614;2022-09-27T08:00:04;28.00;;;18.33;;
20441;SDS011;10380;52.102;20.614;2022-09-27T08:02:32;32.93;;;20.33;;
20441;SDS011;10380;52.102;20.614;2022-09-27T08:04:59;29.97;;;20.77;;
20441;SDS011;10380;52.102;20.614;2022-09-27T08:07:26;37.17;;;21.63;;
20441;SDS011;10380;52.102;20.614;2022-09-27T08:09:53;31.37;;;21.57;;
20441;SDS011;10380;52.102;20.614;2022-09-27T08:12:20;30.90;;;20.43;;
20441;SDS011;10380;52.102;20.614;2022-09-27T08:14:47;29.67;;;19.30;;
20441;SDS011;10380;52.102;20.614;2022-09-27T08:17:15;30.47;;;21.43;;
20441;SDS011;10380;52.102;20.614;2022-09-27T08:19:42;29.63;;;20.77;;
20441;SDS011;10380;52.102;20.614;2022-09-27T08:22:10;31.17;;;20.20;;
20441;SDS011;10380;52.102;20.614;2022-09-27T08:24:39;30.03;;;20.17;;
20441;SDS011;10380;52.102;20.614;2022-09-27T08:27:06;29.35;;;20.15;;
20441;SDS011;10380;52.102;20.614;2022-09-27T08:29:37;34.03;;;20.23;;
20441;SDS011;10380;52.102;20.614;2022-09-27T08:32:07;28.43;;;19.83;;
20441;SDS011;10380;52.102;20.614;2022-09-27T08:34:35;27.80;;;19.77;;
20441;SDS011;10380;52.102;20.614;2022-09-27T08:37:02;30.00;;;19.43;;
20441;SDS011;10380;52.102;20.614;2022-09-27T08:39:29;30.57;;;19.07;;
20441;SDS011;10380;52.102;20.614;2022-09-27T08:47:21;23.63;;;18.73;;
20441;SDS011;10380;52.102;20.614;2022-09-27T08:49:56;24.87;;;17.37;;
20441;SDS011;10380;52.102;20.614;2022-09-27T08:55:03;21.73;;;17.20;;
20441;SDS011;10380;52.102;20.614;2022-09-27T08:57:39;27.35;;;18.52;;
20441;SDS011;10380;52.102;20.614;2022-09-27T09:00:09;27.48;;;18.92;;
20441;SDS011;10380;52.102;20.614;2022-09-27T09:02:37;23.30;;;17.45;;
20441;SDS011;10380;52.102;20.614;2022-09-27T09:05:07;21.23;;;16.88;;
20441;SDS011;10380;52.102;20.614;2022-09-27T09:25:00;20.05;;;15.02;;
20441;SDS011;10380;52.102;20.614;2022-09-27T09:33:33;20.38;;;14.88;;
20441;SDS011;10380;52.102;20.614;2022-09-27T09:36:28;17.33;;;13.60;;
20441;SDS011;10380;52.102;20.614;2022-09-27T09:39:04;15.48;;;12.70;;
20441;SDS011;10380;52.102;20.614;2022-09-27T09:41:40;14.90;;;12.30;;
20441;SDS011;10380;52.102;20.614;2022-09-27T09:46:44;16.58;;;13.25;;
20441;SDS011;10380;52.102;20.614;2022-09-27T09:49:29;15.60;;;12.38;;
20441;SDS011;10380;52.102;20.614;2022-09-27T09:52:10;17.38;;;13.70;;
20441;SDS011;10380;52.102;20.614;2022-09-27T09:54:59;15.80;;;13.43;;
20441;SDS011;10380;52.102;20.614;2022-09-27T10:00:30;17.75;;;13.00;;
20441;SDS011;10380;52.102;20.614;2022-09-27T10:02:57;17.77;;;14.40;;
20441;SDS011;10380;52.102;20.614;2022-09-27T10:05:26;18.27;;;14.43;;
20441;SDS011;10380;52.102;20.614;2022-09-27T10:07:54;17.83;;;14.93;;
20441;SDS011;10380;52.102;20.614;2022-09-27T10:10:25;21.63;;;17.20;;
20441;SDS011;10380;52.102;20.614;2022-09-27T10:12:53;17.90;;;15.07;;
20441;SDS011;10380;52.102;20.614;2022-09-27T10:15:22;19.30;;;14.52;;
20441;SDS011;10380;52.102;20.614;2022-09-27T10:17:52;16.90;;;14.63;;
20441;SDS011;10380;52.102;20.614;2022-09-27T10:23:33;16.25;;;14.07;;
20441;SDS011;10380;52.102;20.614;2022-09-27T10:26:00;20.58;;;16.17;;
20441;SDS011;10380;52.102;20.614;2022-09-27T10:31:13;17.67;;;14.90;;
20441;SDS011;10380;52.102;20.614;2022-09-27T10:36:26;18.45;;;14.93;;
20441;SDS011;10380;52.102;20.614;2022-09-27T10:38:55;20.77;;;15.48;;
20441;SDS011;10380;52.102;20.614;2022-09-27T10:41:47;17.65;;;15.40;;
20441;SDS011;10380;52.102;20.614;2022-09-27T10:46:49;17.65;;;15.40;;
20441;SDS011;10380;52.102;20.614;2022-09-27T10:49:31;18.38;;;16.17;;
20441;SDS011;10380;52.102;20.614;2022-09-27T10:52:02;17.10;;;15.30;;
20441;SDS011;10380;52.102;20.614;2022-09-27T10:54:36;18.42;;;16.00;;
20441;SDS011;10380;52.102;20.614;2022-09-27T10:57:08;18.35;;;15.82;;
20441;SDS011;10380;52.102;20.614;2022-09-27T10:59:44;21.02;;;16.58;;
20441;SDS011;10380;52.102;20.614;2022-09-27T11:02:19;17.92;;;16.00;;
20441;SDS011;10380;52.102;20.614;2022-09-27T11:07:49;18.85;;;16.85;;
20441;SDS011;10380;52.102;20.614;2022-09-27T11:13:06;17.33;;;15.38;;
20441;SDS011;10380;52.102;20.614;2022-09-27T11:15:44;18.10;;;14.75;;
20441;SDS011;10380;52.102;20.614;2022-09-27T11:27:06;21.00;;;15.65;;
20441;SDS011;10380;52.102;20.614;2022-09-27T11:46:29;20.45;;;16.58;;
20441;SDS011;10380;52.102;20.614;2022-09-27T11:55:49;18.45;;;15.80;;
20441;SDS011;10380;52.102;20.614;2022-09-27T12:01:21;19.17;;;15.18;;
20441;SDS011;10380;52.102;20.614;2022-09-27T12:04:25;18.90;;;15.35;;
20441;SDS011;10380;52.102;20.614;2022-09-27T12:09:54;16.40;;;14.57;;
20441;SDS011;10380;52.102;20.614;2022-09-27T12:12:29;18.67;;;15.32;;
20441;SDS011;10380;52.102;20.614;2022-09-27T12:17:48;18.00;;;14.40;;
20441;SDS011;10380;52.102;20.614;2022-09-27T12:22:56;16.60;;;14.30;;
20441;SDS011;10380;52.102;20.614;2022-09-27T12:25:33;17.02;;;13.85;;
20441;SDS011;10380;52.102;20.614;2022-09-27T12:28:11;15.93;;;13.80;;
20441;SDS011;10380;52.102;20.614;2022-09-27T12:31:04;15.65;;;13.73;;
20441;SDS011;10380;52.102;20.614;2022-09-27T12:34:05;15.75;;;11.85;;
20441;SDS011;10380;52.102;20.614;2022-09-27T12:37:02;15.40;;;12.48;;
20441;SDS011;10380;52.102;20.614;2022-09-27T12:39:52;13.13;;;11.73;;
20441;SDS011;10380;52.102;20.614;2022-09-27T12:45:02;11.90;;;10.00;;
20441;SDS011;10380;52.102;20.614;2022-09-27T12:53:14;12.02;;;8.90;;
20441;SDS011;10380;52.102;20.614;2022-09-27T13:12:54;11.20;;;9.40;;
20441;SDS011;10380;52.102;20.614;2022-09-27T13:15:27;9.95;;;8.95;;
20441;SDS011;10380;52.102;20.614;2022-09-27T13:18:00;9.13;;;8.27;;
20441;SDS011;10380;52.102;20.614;2022-09-27T13:20:31;11.55;;;9.10;;
20441;SDS011;10380;52.102;20.614;2022-09-27T13:22:59;12.25;;;8.93;;
20441;SDS011;10380;52.102;20.614;2022-09-27T13:31:00;10.40;;;9.35;;
20441;SDS011;10380;52.102;20.614;2022-09-27T13:36:26;12.63;;;9.55;;
20441;SDS011;10380;52.102;20.614;2022-09-27T13:41:33;10.68;;;9.07;;
20441;SDS011;10380;52.102;20.614;2022-09-27T13:47:39;9.82;;;8.93;;
20441;SDS011;10380;52.102;20.614;2022-09-27T13:50:12;11.80;;;8.73;;
20441;SDS011;10380;52.102;20.614;2022-09-27T13:53:11;11.82;;;8.73;;
20441;SDS011;10380;52.102;20.614;2022-09-27T13:56:02;10.65;;;9.35;;
20441;SDS011;10380;52.102;20.614;2022-09-27T14:01:30;12.25;;;10.95;;
20441;SDS011;10380;52.102;20.614;2022-09-27T14:04:45;15.88;;;10.82;;
20441;SDS011;10380;52.102;20.614;2022-09-27T14:06:57;13.80;;;10.43;;
20441;SDS011;10380;52.102;20.614;2022-09-27T14:09:28;15.05;;;10.60;;
20441;SDS011;10380;52.102;20.614;2022-09-27T14:11:58;14.32;;;10.77;;
20441;SDS011;10380;52.102;20.614;2022-09-27T14:14:30;13.82;;;10.00;;
20441;SDS011;10380;52.102;20.614;2022-09-27T14:16:58;13.88;;;10.57;;
20441;SDS011;10380;52.102;20.614;2022-09-27T14:19:28;16.77;;;12.30;;
20441;SDS011;10380;52.102;20.614;2022-09-27T14:21:55;18.73;;;12.82;;
20441;SDS011;10380;52.102;20.614;2022-09-27T14:27:12;21.27;;;13.18;;
20441;SDS011;10380;52.102;20.614;2022-09-27T14:29:58;21.88;;;13.73;;
20441;SDS011;10380;52.102;20.614;2022-09-27T14:32:28;14.65;;;11.50;;
20441;SDS011;10380;52.102;20.614;2022-09-27T14:35:03;11.45;;;10.25;;
20441;SDS011;10380;52.102;20.614;2022-09-27T14:37:30;12.35;;;11.15;;
20441;SDS011;10380;52.102;20.614;2022-09-27T14:39:59;11.00;;;9.90;;
20441;SDS011;10380;52.102;20.614;2022-09-27T14:42:33;11.07;;;9.98;;
20441;SDS011;10380;52.102;20.614;2022-09-27T14:45:17;11.75;;;10.05;;
20441;SDS011;10380;52.102;20.614;2022-09-27T14:48:05;12.57;;;11.40;;
20441;SDS011;10380;52.102;20.614;2022-09-27T14:53:52;12.68;;;11.23;;
20441;SDS011;10380;52.102;20.614;2022-09-27T14:56:29;13.75;;;12.43;;
20441;SDS011;10380;52.102;20.614;2022-09-27T15:02:00;14.23;;;12.73;;
20441;SDS011;10380;52.102;20.614;2022-09-27T15:04:35;16.75;;;14.48;;
20441;SDS011;10380;52.102;20.614;2022-09-27T15:07:02;16.52;;;14.60;;
20441;SDS011;10380;52.102;20.614;2022-09-27T15:09:30;16.10;;;13.43;;
20441;SDS011;10380;52.102;20.614;2022-09-27T15:11:58;15.90;;;14.40;;
20441;SDS011;10380;52.102;20.614;2022-09-27T15:14:27;13.00;;;11.65;;
20441;SDS011;10380;52.102;20.614;2022-09-27T15:16:58;11.90;;;10.70;;
20441;SDS011;10380;52.102;20.614;2022-09-27T15:19:30;22.30;;;18.00;;
20441;SDS011;10380;52.102;20.614;2022-09-27T15:24:49;13.55;;;12.13;;
20441;SDS011;10380;52.102;20.614;2022-09-27T15:27:21;12.38;;;11.18;;
20441;SDS011;10380;52.102;20.614;2022-09-27T15:29:51;14.05;;;12.63;;
20441;SDS011;10380;52.102;20.614;2022-09-27T15:32:21;14.70;;;13.20;;
20441;SDS011;10380;52.102;20.614;2022-09-27T15:34:53;13.25;;;11.98;;
20441;SDS011;10380;52.102;20.614;2022-09-27T15:39:53;13.13;;;10.63;;
20441;SDS011;10380;52.102;20.614;2022-09-27T15:42:23;13.07;;;10.13;;
20441;SDS011;10380;52.102;20.614;2022-09-27T15:44:51;12.27;;;10.70;;
20441;SDS011;10380;52.102;20.614;2022-09-27T15:52:48;13.65;;;10.82;;
20441;SDS011;10380;52.102;20.614;2022-09-27T15:55:18;14.05;;;11.98;;
20441;SDS011;10380;52.102;20.614;2022-09-27T15:57:48;14.43;;;11.88;;
20441;SDS011;10380;52.102;20.614;2022-09-27T16:00:25;13.73;;;12.18;;
20441;SDS011;10380;52.102;20.614;2022-09-27T16:02:53;13.65;;;12.25;;
20441;SDS011;10380;52.102;20.614;2022-09-27T16:05:20;14.25;;;12.52;;
20441;SDS011;10380;52.102;20.614;2022-09-27T16:07:50;14.68;;;13.13;;
20441;SDS011;10380;52.102;20.614;2022-09-27T16:12:45;14.63;;;12.88;;
20441;SDS011;10380;52.102;20.614;2022-09-27T16:15:13;16.27;;;13.65;;
20441;SDS011;10380;52.102;20.614;2022-09-27T16:17:41;16.15;;;14.52;;
20441;SDS011;10380;52.102;20.614;2022-09-27T16:20:13;17.63;;;13.77;;
20441;SDS011;10380;52.102;20.614;2022-09-27T16:22:46;21.15;;;17.92;;
20441;SDS011;10380;52.102;20.614;2022-09-27T16:25:13;35.33;;;25.88;;
20441;SDS011;10380;52.102;20.614;2022-09-27T16:27:41;19.33;;;17.27;;
20441;SDS011;10380;52.102;20.614;2022-09-27T16:30:08;18.03;;;16.13;;
20441;SDS011;10380;52.102;20.614;2022-09-27T16:32:39;19.33;;;16.52;;
20441;SDS011;10380;52.102;20.614;2022-09-27T16:35:11;20.73;;;17.23;;
20441;SDS011;10380;52.102;20.614;2022-09-27T16:37:38;21.20;;;18.83;;
20441;SDS011;10380;52.102;20.614;2022-09-27T16:40:06;23.53;;;20.93;;
20441;SDS011;10380;52.102;20.614;2022-09-27T16:42:35;24.90;;;22.20;;
20441;SDS011;10380;52.102;20.614;2022-09-27T16:45:03;28.47;;;24.07;;
20441;SDS011;10380;52.102;20.614;2022-09-27T16:47:36;29.33;;;24.30;;
20441;SDS011;10380;52.102;20.614;2022-09-27T16:50:05;27.50;;;23.83;;
20441;SDS011;10380;52.102;20.614;2022-09-27T16:52:51;29.07;;;24.13;;
20441;SDS011;10380;52.102;20.614;2022-09-27T16:55:18;28.63;;;22.57;;
20441;SDS011;10380;52.102;20.614;2022-09-27T16:57:49;29.10;;;24.53;;
20441;SDS011;10380;52.102;20.614;2022-09-27T17:00:16;26.67;;;23.23;;
20441;SDS011;10380;52.102;20.614;2022-09-27T17:02:47;25.67;;;22.87;;
20441;SDS011;10380;52.102;20.614;2022-09-27T17:05:20;28.40;;;24.57;;
20441;SDS011;10380;52.102;20.614;2022-09-27T17:07:49;31.00;;;25.20;;
20441;SDS011;10380;52.102;20.614;2022-09-27T17:10:18;29.13;;;24.37;;
20441;SDS011;10380;52.102;20.614;2022-09-27T17:12:46;29.67;;;24.47;;
20441;SDS011;10380;52.102;20.614;2022-09-27T17:15:14;28.63;;;24.93;;
20441;SDS011;10380;52.102;20.614;2022-09-27T17:17:42;29.60;;;24.47;;
20441;SDS011;10380;52.102;20.614;2022-09-27T17:20:10;26.98;;;23.75;;
20441;SDS011;10380;52.102;20.614;2022-09-27T17:22:37;30.07;;;25.13;;
20441;SDS011;10380;52.102;20.614;2022-09-27T17:25:04;29.48;;;24.48;;
20441;SDS011;10380;52.102;20.614;2022-09-27T17:27:31;27.43;;;23.37;;
20441;SDS011;10380;52.102;20.614;2022-09-27T17:29:58;28.47;;;23.27;;
20441;SDS011;10380;52.102;20.614;2022-09-27T17:32:25;30.90;;;25.07;;
20441;SDS011;10380;52.102;20.614;2022-09-27T17:34:52;29.90;;;26.03;;
20441;SDS011;10380;52.102;20.614;2022-09-27T17:37:20;30.00;;;25.37;;
20441;SDS011;10380;52.102;20.614;2022-09-27T17:39:47;30.23;;;24.57;;
20441;SDS011;10380;52.102;20.614;2022-09-27T17:42:13;35.60;;;28.00;;
20441;SDS011;10380;52.102;20.614;2022-09-27T17:44:40;35.63;;;26.87;;
20441;SDS011;10380;52.102;20.614;2022-09-27T17:47:07;36.87;;;30.13;;
20441;SDS011;10380;52.102;20.614;2022-09-27T17:49:52;35.23;;;28.07;;
20441;SDS011;10380;52.102;20.614;2022-09-27T17:52:38;38.57;;;30.77;;